createdAt,value
2018-12-16T00:02:08.256Z,-0.70
2018-12-16T00:04:38.696Z,-0.60
2018-12-16T00:07:09.256Z,-0.60
2018-12-16T00:09:38.845Z,-0.60
2018-12-16T00:12:07.305Z,-0.50
2018-12-16T00:14:36.003Z,-0.50
2018-12-16T00:17:04.776Z,-0.60
2018-12-16T00:19:33.277Z,-0.60
2018-12-16T00:22:01.933Z,-0.50
2018-12-16T00:24:30.444Z,-0.50
2018-12-16T00:27:12.180Z,-0.40
2018-12-16T00:29:41.506Z,-0.40
2018-12-16T00:32:10.841Z,-0.30
2018-12-16T00:34:39.448Z,-0.40
2018-12-16T00:37:08.005Z,-0.40
2018-12-16T00:39:36.584Z,-0.40
2018-12-16T00:42:05.835Z,-0.30
2018-12-16T00:44:34.372Z,-0.50
2018-12-16T00:47:03.005Z,-0.40
2018-12-16T00:49:31.477Z,-0.70
2018-12-16T00:51:59.916Z,-0.50
2018-12-16T00:54:28.513Z,-0.50
2018-12-16T00:56:57.381Z,-0.80
2018-12-16T00:59:25.877Z,-0.70
2018-12-16T01:01:54.560Z,-0.60
2018-12-16T01:04:23.084Z,-0.60
2018-12-16T01:06:51.524Z,-0.70
2018-12-16T01:09:20.412Z,-0.70
2018-12-16T01:11:49.237Z,-0.60
2018-12-16T01:14:17.680Z,-0.50
2018-12-16T01:16:46.266Z,-0.50
2018-12-16T01:19:15.355Z,-0.60
2018-12-16T01:21:43.743Z,-0.70
2018-12-16T01:24:12.209Z,-0.90
2018-12-16T01:26:40.540Z,-0.70
2018-12-16T01:29:08.969Z,-0.60
2018-12-16T01:31:37.561Z,-0.80
2018-12-16T01:34:06.080Z,-0.70
2018-12-16T01:36:34.505Z,-0.90
2018-12-16T01:39:03.864Z,-1.00
2018-12-16T01:41:34.473Z,-1.30
2018-12-16T01:44:03.601Z,-1.40
2018-12-16T01:46:32.033Z,-1.20
2018-12-16T01:49:00.752Z,-1.20
2018-12-16T01:51:29.297Z,-1.10
2018-12-16T01:53:57.776Z,-1.30
2018-12-16T01:56:26.405Z,-1.30
2018-12-16T01:58:55.973Z,-1.20
2018-12-16T02:01:25.168Z,-1.00
2018-12-16T02:03:53.793Z,-0.80
2018-12-16T02:06:22.256Z,-1.00
2018-12-16T02:08:50.712Z,-1.00
2018-12-16T02:11:19.644Z,-0.90
2018-12-16T02:13:48.082Z,-0.80
2018-12-16T02:16:16.553Z,-0.70
2018-12-16T02:18:44.984Z,-0.70
2018-12-16T02:21:13.325Z,-0.80
2018-12-16T02:23:41.705Z,-0.70
2018-12-16T02:26:10.226Z,-0.90
2018-12-16T02:28:38.571Z,-1.00
2018-12-16T02:31:07.156Z,-0.90
2018-12-16T02:33:36.071Z,-0.80
2018-12-16T02:36:04.520Z,-0.60
2018-12-16T02:38:32.998Z,-0.70
2018-12-16T02:41:01.400Z,-0.70
2018-12-16T02:43:29.960Z,-0.80
2018-12-16T02:46:00.197Z,-0.60
2018-12-16T02:48:29.035Z,-0.50
2018-12-16T02:50:57.453Z,-0.30
2018-12-16T02:53:25.833Z,-0.30
2018-12-16T02:55:54.468Z,-0.30
2018-12-16T02:58:23.385Z,-0.30
2018-12-16T03:00:51.893Z,-0.20
2018-12-16T03:03:20.432Z,-0.10
2018-12-16T03:05:48.952Z,0.00
2018-12-16T03:08:17.533Z,0.00
2018-12-16T03:10:46.941Z,-0.10
2018-12-16T03:13:15.500Z,0.00
2018-12-16T03:15:43.904Z,0.00
2018-12-16T03:18:13.858Z,0.10
2018-12-16T03:20:43.013Z,0.10
2018-12-16T03:23:12.436Z,0.20
2018-12-16T03:25:41.448Z,0.20
2018-12-16T03:28:09.992Z,0.10
2018-12-16T03:30:38.457Z,0.20
2018-12-16T03:33:07.139Z,0.20
2018-12-16T03:35:35.748Z,0.10
2018-12-16T03:38:04.224Z,0.20
2018-12-16T03:40:32.640Z,0.30
2018-12-16T03:43:01.085Z,0.10
2018-12-16T03:45:29.666Z,0.20
2018-12-16T03:47:58.397Z,0.30
2018-12-16T03:50:27.037Z,0.20
2018-12-16T03:52:55.504Z,0.10
2018-12-16T03:55:25.116Z,0.10
2018-12-16T03:57:53.505Z,0.20
2018-12-16T04:00:22.096Z,0.30
2018-12-16T04:02:50.616Z,0.30
2018-12-16T04:05:19.052Z,0.40
2018-12-16T04:07:47.642Z,0.40
2018-12-16T04:10:16.560Z,0.10
2018-12-16T04:12:45.049Z,0.10
2018-12-16T04:15:13.525Z,0.10
2018-12-16T04:17:42.113Z,0.10
2018-12-16T04:20:10.553Z,0.20
2018-12-16T04:22:39.049Z,0.30
2018-12-16T04:25:08.739Z,0.20
2018-12-16T04:27:37.944Z,0.30
2018-12-16T04:30:06.865Z,0.30
2018-12-16T04:32:35.459Z,0.40
2018-12-16T04:35:04.272Z,0.40
2018-12-16T04:37:32.669Z,0.40
2018-12-16T04:40:01.211Z,0.40
2018-12-16T04:42:29.749Z,0.40
2018-12-16T04:44:59.148Z,0.40
2018-12-16T04:47:27.781Z,0.40
2018-12-16T04:49:56.242Z,0.40
2018-12-16T04:52:24.801Z,0.50
2018-12-16T04:54:53.565Z,0.50
2018-12-16T04:57:21.849Z,0.50
2018-12-16T04:59:50.424Z,0.50
2018-12-16T05:02:18.972Z,0.60
2018-12-16T05:04:47.306Z,0.50
2018-12-16T05:07:15.923Z,0.60
2018-12-16T05:09:44.408Z,0.50
2018-12-16T05:12:13.057Z,0.50
2018-12-16T05:14:41.724Z,0.50
2018-12-16T05:17:10.160Z,0.60
2018-12-16T05:19:38.609Z,0.60
2018-12-16T05:22:07.084Z,0.50
2018-12-16T05:24:35.575Z,0.60
2018-12-16T05:27:04.045Z,0.60
2018-12-16T05:29:32.524Z,0.60
2018-12-16T05:32:01.037Z,0.70
2018-12-16T05:34:29.504Z,0.50
2018-12-16T05:36:57.973Z,0.50
2018-12-16T05:39:27.558Z,0.60
2018-12-16T05:41:55.953Z,0.50
2018-12-16T05:44:24.437Z,0.50
2018-12-16T05:46:53.999Z,0.60
2018-12-16T05:49:21.710Z,0.60
2018-12-16T05:51:50.220Z,0.50
2018-12-16T05:54:19.016Z,0.40
2018-12-16T05:56:47.356Z,0.50
2018-12-16T05:59:15.737Z,0.50
2018-12-16T06:01:44.356Z,0.50
2018-12-16T06:04:12.902Z,0.60
2018-12-16T06:06:41.384Z,0.60
2018-12-16T06:09:09.913Z,0.60
2018-12-16T06:11:38.449Z,0.60
2018-12-16T06:14:06.932Z,0.60
2018-12-16T06:16:35.861Z,0.60
2018-12-16T06:19:04.609Z,0.50
2018-12-16T06:21:32.973Z,0.60
2018-12-16T06:24:01.404Z,0.60
2018-12-16T06:26:29.733Z,0.60
2018-12-16T06:28:58.225Z,0.70
2018-12-16T06:31:27.533Z,0.70
2018-12-16T06:33:56.000Z,0.70
2018-12-16T06:36:24.473Z,0.60
2018-12-16T06:38:53.912Z,0.70
2018-12-16T06:41:22.378Z,0.70
2018-12-16T06:43:51.033Z,0.70
2018-12-16T06:46:19.465Z,0.80
2018-12-16T06:48:47.819Z,0.80
2018-12-16T06:51:16.596Z,0.80
2018-12-16T06:53:44.973Z,0.70
2018-12-16T06:56:13.361Z,0.80
2018-12-16T06:58:41.828Z,0.80
2018-12-16T07:01:10.461Z,0.80
2018-12-16T07:03:39.011Z,0.90
2018-12-16T07:06:07.495Z,0.90
2018-12-16T07:08:36.428Z,0.80
2018-12-16T07:11:04.957Z,0.80
2018-12-16T07:13:33.545Z,0.80
2018-12-16T07:16:02.147Z,0.80
2018-12-16T07:18:30.804Z,0.80
2018-12-16T07:20:59.225Z,0.80
2018-12-16T07:23:28.957Z,0.80
2018-12-16T07:25:57.603Z,0.80
2018-12-16T07:28:26.177Z,0.90
2018-12-16T07:30:54.768Z,0.90
2018-12-16T07:33:23.577Z,1.10
2018-12-16T07:35:52.334Z,1.20
2018-12-16T07:38:20.857Z,1.20
2018-12-16T07:40:49.388Z,1.10
2018-12-16T07:43:17.692Z,1.20
2018-12-16T07:45:46.685Z,1.20
2018-12-16T07:48:15.946Z,1.30
2018-12-16T07:50:44.461Z,1.60
2018-12-16T07:53:13.144Z,1.60
2018-12-16T07:55:41.827Z,1.70
2018-12-16T07:58:10.415Z,1.90
2018-12-16T08:00:39.743Z,1.90
2018-12-16T08:03:08.169Z,1.80
2018-12-16T08:05:36.770Z,2.00
2018-12-16T08:08:05.424Z,2.00
2018-12-16T08:10:33.717Z,2.00
2018-12-16T08:13:02.314Z,2.10
2018-12-16T08:15:31.857Z,2.10
2018-12-16T08:18:00.411Z,2.10
2018-12-16T08:20:29.493Z,2.10
2018-12-16T08:22:58.029Z,2.10
2018-12-16T08:25:26.357Z,2.10
2018-12-16T08:27:54.918Z,2.10
2018-12-16T08:30:23.422Z,2.10
2018-12-16T08:32:51.852Z,2.20
2018-12-16T08:35:20.277Z,2.20
2018-12-16T08:37:49.033Z,2.30
2018-12-16T08:40:17.554Z,2.30
2018-12-16T08:42:46.133Z,2.40
2018-12-16T08:45:14.808Z,2.40
2018-12-16T08:47:43.312Z,2.40
2018-12-16T08:50:11.885Z,2.50
2018-12-16T08:52:40.396Z,2.50
2018-12-16T08:55:08.846Z,2.60
2018-12-16T08:57:37.747Z,2.60
2018-12-16T09:00:08.332Z,2.60
2018-12-16T09:02:36.953Z,2.70
2018-12-16T09:05:05.736Z,2.70
2018-12-16T09:07:37.443Z,2.70
2018-12-16T09:10:08.071Z,2.80
2018-12-16T09:12:38.389Z,2.70
2018-12-16T09:15:07.140Z,2.80
2018-12-16T09:17:35.618Z,2.80
2018-12-16T09:20:04.648Z,2.80
2018-12-16T09:22:34.119Z,2.80
2018-12-16T09:25:02.697Z,2.90
2018-12-16T09:27:31.528Z,2.90
2018-12-16T09:30:00.070Z,2.90
2018-12-16T09:32:28.548Z,3.00
2018-12-16T09:34:57.072Z,3.00
2018-12-16T09:37:25.517Z,3.00
2018-12-16T09:39:54.014Z,3.10
2018-12-16T09:42:22.621Z,3.10
2018-12-16T09:44:51.109Z,3.00
2018-12-16T09:47:19.792Z,3.10
2018-12-16T09:49:48.574Z,3.20
2018-12-16T09:52:17.221Z,3.20
2018-12-16T09:54:45.804Z,3.20
2018-12-16T09:57:14.220Z,3.10
2018-12-16T09:59:42.844Z,3.10
2018-12-16T10:02:11.350Z,3.20
2018-12-16T10:04:39.869Z,3.20
2018-12-16T10:07:08.320Z,3.30
2018-12-16T10:09:36.776Z,3.30
2018-12-16T10:12:05.522Z,3.30
2018-12-16T10:14:34.037Z,3.40
2018-12-16T10:17:02.532Z,3.40
2018-12-16T10:19:32.254Z,3.40
2018-12-16T10:22:00.677Z,3.50
2018-12-16T10:24:29.255Z,3.50
2018-12-16T10:26:57.784Z,3.60
2018-12-16T10:29:26.281Z,3.60
2018-12-16T10:31:54.860Z,3.70
2018-12-16T10:34:23.486Z,3.80
2018-12-16T10:36:52.948Z,3.80
2018-12-16T10:39:21.434Z,3.80
2018-12-16T10:41:50.016Z,3.80
2018-12-16T10:44:18.601Z,3.80
2018-12-16T10:46:46.981Z,3.80
2018-12-16T10:49:17.137Z,3.90
2018-12-16T10:51:45.656Z,3.90
2018-12-16T10:54:13.719Z,3.80
2018-12-16T10:56:42.477Z,3.80
2018-12-16T10:59:10.998Z,3.80
2018-12-16T11:01:39.496Z,3.80
2018-12-16T11:04:08.229Z,3.80
2018-12-16T11:06:37.842Z,3.90
2018-12-16T11:09:06.789Z,4.00
2018-12-16T11:11:37.462Z,4.10
2018-12-16T11:14:05.901Z,4.20
2018-12-16T11:16:34.174Z,4.30
2018-12-16T11:19:03.010Z,4.40
2018-12-16T11:21:32.372Z,4.60
2018-12-16T11:24:00.948Z,4.70
2018-12-16T11:26:29.368Z,4.70
2018-12-16T11:28:57.808Z,4.80
2018-12-16T11:31:26.189Z,4.80
2018-12-16T11:33:54.808Z,4.80
2018-12-16T11:36:23.436Z,4.90
2018-12-16T11:38:52.041Z,4.90
2018-12-16T11:41:20.664Z,4.90
2018-12-16T11:43:49.212Z,5.00
2018-12-16T11:46:18.457Z,5.00
2018-12-16T11:48:47.680Z,5.00
2018-12-16T11:51:16.291Z,5.10
2018-12-16T11:53:45.737Z,5.20
2018-12-16T11:56:14.275Z,5.20
2018-12-16T11:58:42.852Z,5.30
2018-12-16T12:01:11.344Z,5.30
2018-12-16T12:03:40.933Z,5.40
2018-12-16T12:06:09.428Z,5.40
2018-12-16T12:08:37.815Z,5.50
2018-12-16T12:11:06.651Z,5.40
2018-12-16T12:13:35.284Z,5.40
2018-12-16T12:16:03.869Z,5.50
2018-12-16T12:18:32.697Z,5.40
2018-12-16T12:21:01.146Z,5.30
2018-12-16T12:23:30.253Z,5.30
2018-12-16T12:26:00.937Z,5.40
2018-12-16T12:28:29.438Z,5.50
2018-12-16T12:30:58.177Z,5.40
2018-12-16T12:33:26.760Z,5.30
2018-12-16T12:35:55.311Z,5.40
2018-12-16T12:38:23.902Z,5.60
2018-12-16T12:40:52.409Z,5.70
2018-12-16T12:43:21.609Z,5.70
2018-12-16T12:45:50.100Z,5.60
2018-12-16T12:48:18.641Z,5.80
2018-12-16T12:50:47.396Z,5.80
2018-12-16T12:53:15.693Z,5.70
2018-12-16T12:55:44.204Z,5.70
2018-12-16T12:58:12.660Z,5.80
2018-12-16T13:00:41.136Z,5.70
2018-12-16T13:03:09.824Z,6.00
2018-12-16T13:05:38.311Z,5.90
2018-12-16T13:08:06.781Z,5.90
2018-12-16T13:10:35.307Z,5.90
2018-12-16T13:13:03.858Z,5.80
2018-12-16T13:15:32.547Z,5.80
2018-12-16T13:18:01.134Z,5.90
2018-12-16T13:20:29.708Z,5.80
2018-12-16T13:22:58.186Z,5.70
2018-12-16T13:25:38.787Z,5.80
2018-12-16T13:28:07.205Z,5.80
2018-12-16T13:30:35.704Z,5.80
2018-12-16T13:33:04.155Z,5.90
2018-12-16T13:35:32.444Z,5.90
2018-12-16T13:38:01.553Z,5.80
2018-12-16T13:40:30.077Z,5.80
2018-12-16T13:42:58.523Z,5.80
2018-12-16T13:45:26.993Z,5.80
2018-12-16T13:47:55.425Z,5.70
2018-12-16T13:50:23.852Z,5.80
2018-12-16T13:52:52.815Z,5.60
2018-12-16T13:55:21.480Z,5.70
2018-12-16T13:57:50.476Z,5.60
2018-12-16T14:00:19.012Z,5.60
2018-12-16T14:02:47.537Z,5.60
2018-12-16T14:05:16.157Z,5.50
2018-12-16T14:07:44.760Z,5.50
2018-12-16T14:10:13.396Z,5.30
2018-12-16T14:12:41.933Z,5.30
2018-12-16T14:15:10.516Z,5.20
2018-12-16T14:17:40.204Z,5.30
2018-12-16T14:20:09.600Z,5.40
2018-12-16T14:22:38.660Z,5.40
2018-12-16T14:25:07.384Z,5.30
2018-12-16T14:27:35.888Z,5.40
2018-12-16T14:30:06.196Z,5.40
2018-12-16T14:32:34.633Z,5.30
2018-12-16T14:35:04.892Z,5.30
2018-12-16T14:37:33.177Z,5.20
2018-12-16T14:40:01.618Z,5.20
2018-12-16T14:42:30.877Z,5.10
2018-12-16T14:44:59.353Z,5.10
2018-12-16T14:47:27.961Z,5.10
2018-12-16T14:49:56.421Z,5.10
2018-12-16T14:52:25.730Z,5.00
2018-12-16T14:54:54.237Z,5.00
2018-12-16T14:57:22.684Z,4.90
2018-12-16T14:59:51.376Z,4.60
2018-12-16T15:02:20.133Z,4.50
2018-12-16T15:04:49.470Z,4.30
2018-12-16T15:07:18.860Z,4.30
2018-12-16T15:09:47.398Z,4.10
2018-12-16T15:12:15.821Z,3.90
2018-12-16T15:14:44.863Z,3.90
2018-12-16T15:17:13.472Z,3.80
2018-12-16T15:19:41.981Z,3.70
2018-12-16T15:22:10.461Z,3.70
2018-12-16T15:24:39.092Z,3.50
2018-12-16T15:27:07.424Z,3.40
2018-12-16T15:29:36.015Z,3.40
2018-12-16T15:32:04.629Z,3.40
2018-12-16T15:34:33.290Z,3.40
2018-12-16T15:37:01.749Z,3.30
2018-12-16T15:39:31.649Z,3.30
2018-12-16T15:42:00.059Z,3.30
2018-12-16T15:44:28.633Z,3.30
2018-12-16T15:46:57.401Z,3.40
2018-12-16T15:49:25.893Z,3.40
2018-12-16T15:51:54.281Z,3.30
2018-12-16T15:54:22.788Z,3.30
2018-12-16T15:56:51.349Z,3.20
2018-12-16T15:59:19.929Z,3.10
2018-12-16T16:01:48.613Z,3.10
2018-12-16T16:04:17.201Z,3.10
2018-12-16T16:06:45.777Z,3.10
2018-12-16T16:09:14.420Z,3.10
2018-12-16T16:11:43.053Z,3.10
2018-12-16T16:14:11.565Z,3.00
2018-12-16T16:16:40.871Z,2.90
2018-12-16T16:19:09.493Z,2.90
2018-12-16T16:21:37.876Z,2.80
2018-12-16T16:24:06.624Z,2.80
2018-12-16T16:26:35.064Z,2.80
2018-12-16T16:29:03.738Z,2.80
2018-12-16T16:31:35.154Z,2.80
2018-12-16T16:34:03.880Z,2.60
2018-12-16T16:36:32.357Z,2.40
2018-12-16T16:39:00.988Z,2.40
2018-12-16T16:41:31.581Z,2.30
2018-12-16T16:44:03.337Z,2.20
2018-12-16T16:46:31.813Z,2.20
2018-12-16T16:49:00.409Z,2.20
2018-12-16T16:51:29.744Z,2.20
2018-12-16T16:53:58.396Z,2.30
2018-12-16T16:56:26.973Z,2.30
2018-12-16T16:58:55.593Z,2.40
2018-12-16T17:01:24.145Z,2.40
2018-12-16T17:03:52.720Z,2.30
2018-12-16T17:06:21.265Z,2.00
2018-12-16T17:08:50.412Z,1.90
2018-12-16T17:11:19.461Z,1.90
2018-12-16T17:13:48.473Z,1.90
2018-12-16T17:16:17.054Z,2.00
2018-12-16T17:18:45.804Z,2.00
2018-12-16T17:21:14.952Z,2.10
2018-12-16T17:23:43.324Z,2.20
2018-12-16T17:26:11.823Z,2.10
2018-12-16T17:28:41.464Z,2.10
2018-12-16T17:31:10.013Z,2.00
2018-12-16T17:33:38.601Z,2.00
2018-12-16T17:36:06.775Z,2.00
2018-12-16T17:38:35.359Z,2.00
2018-12-16T17:41:03.824Z,2.00
2018-12-16T17:43:34.597Z,2.00
2018-12-16T17:46:03.169Z,2.00
2018-12-16T17:48:31.932Z,2.00
2018-12-16T17:51:00.498Z,2.00
2018-12-16T17:53:28.953Z,1.80
2018-12-16T17:55:57.829Z,1.90
2018-12-16T17:58:26.304Z,1.90
2018-12-16T18:00:54.753Z,1.90
2018-12-16T18:03:24.110Z,1.90
2018-12-16T18:05:52.881Z,1.90
2018-12-16T18:08:21.508Z,1.90
2018-12-16T18:10:50.009Z,1.80
2018-12-16T18:13:18.662Z,1.80
2018-12-16T18:15:47.172Z,1.80
2018-12-16T18:18:15.756Z,1.80
2018-12-16T18:20:45.225Z,1.80
2018-12-16T18:23:13.739Z,1.90
2018-12-16T18:25:41.788Z,1.90
2018-12-16T18:28:11.529Z,1.80
2018-12-16T18:30:40.209Z,1.80
2018-12-16T18:33:09.045Z,1.70
2018-12-16T18:35:38.189Z,1.60
2018-12-16T18:38:06.277Z,1.70
2018-12-16T18:40:34.360Z,1.60
2018-12-16T18:43:02.493Z,1.60
2018-12-16T18:45:30.584Z,1.60
2018-12-16T18:47:58.762Z,1.60
2018-12-16T18:50:27.472Z,1.70
2018-12-16T18:52:56.037Z,1.70
2018-12-16T18:55:24.504Z,1.70
2018-12-16T18:57:53.481Z,1.70
2018-12-16T19:00:21.980Z,1.60
2018-12-16T19:02:51.782Z,1.50
2018-12-16T19:05:20.861Z,1.50
2018-12-16T19:07:49.270Z,1.60
2018-12-16T19:10:17.346Z,1.60
2018-12-16T19:12:45.580Z,1.40
2018-12-16T19:15:14.493Z,1.30
2018-12-16T19:17:42.657Z,1.30
2018-12-16T19:20:11.324Z,1.40
2018-12-16T19:22:40.057Z,1.40
2018-12-16T19:25:08.521Z,1.50
2018-12-16T19:27:37.168Z,1.50
2018-12-16T19:30:06.752Z,1.30
2018-12-16T19:32:35.809Z,1.40
2018-12-16T19:35:05.333Z,1.40
2018-12-16T19:37:33.909Z,1.40
2018-12-16T19:40:03.104Z,1.40
2018-12-16T19:42:33.868Z,1.40
2018-12-16T19:45:02.433Z,1.40
2018-12-16T19:47:32.169Z,1.30
2018-12-16T19:50:00.473Z,1.30
2018-12-16T19:52:29.527Z,1.40
2018-12-16T19:54:58.239Z,1.30
2018-12-16T19:57:27.582Z,1.30
2018-12-16T19:59:56.259Z,1.30
2018-12-16T20:02:24.651Z,1.30
2018-12-16T20:05:12.770Z,1.30
2018-12-16T20:07:41.489Z,1.20
2018-12-16T20:10:11.011Z,1.20
2018-12-16T20:12:39.877Z,1.30
2018-12-16T20:15:08.769Z,1.40
2018-12-16T20:17:39.352Z,1.20
2018-12-16T20:20:08.597Z,1.30
2018-12-16T20:22:37.185Z,1.40
2018-12-16T20:25:06.232Z,1.30
2018-12-16T20:27:38.555Z,1.40
2018-12-16T20:30:08.524Z,1.40
2018-12-16T20:32:37.047Z,1.50
2018-12-16T20:35:05.990Z,1.50
2018-12-16T20:37:35.320Z,1.40
2018-12-16T20:40:04.241Z,1.40
2018-12-16T20:42:32.453Z,1.40
2018-12-16T20:45:01.765Z,1.50
2018-12-16T20:47:30.554Z,1.30
2018-12-16T20:49:58.630Z,1.20
2018-12-16T20:52:26.773Z,1.30
2018-12-16T20:54:54.824Z,1.30
2018-12-16T20:57:23.564Z,1.30
2018-12-16T20:59:53.001Z,1.30
2018-12-16T21:02:21.485Z,1.30
2018-12-16T21:04:49.964Z,1.30
2018-12-16T21:07:18.689Z,1.30
2018-12-16T21:09:48.156Z,1.30
2018-12-16T21:12:22.189Z,1.30
2018-12-16T21:14:56.095Z,1.30
2018-12-16T21:17:29.960Z,1.40
2018-12-16T21:19:58.452Z,1.40
2018-12-16T21:22:27.048Z,1.40
2018-12-16T21:24:56.140Z,1.40
2018-12-16T21:27:26.101Z,1.50
2018-12-16T21:29:54.864Z,1.60
2018-12-16T21:32:23.415Z,1.60
2018-12-16T21:34:51.909Z,1.60
2018-12-16T21:37:20.489Z,1.60
2018-12-16T21:39:49.049Z,1.60
2018-12-16T21:42:18.140Z,1.50
2018-12-16T21:44:46.448Z,1.50
2018-12-16T21:47:14.967Z,1.50
2018-12-16T21:49:43.610Z,1.60
2018-12-16T21:52:12.088Z,1.60
2018-12-16T21:54:40.869Z,1.60
2018-12-16T21:57:09.256Z,1.60
2018-12-16T21:59:38.120Z,1.60
2018-12-16T22:02:08.007Z,1.70
2018-12-16T22:04:37.129Z,1.70
2018-12-16T22:07:05.640Z,1.80
2018-12-16T22:09:34.266Z,1.80
2018-12-16T22:12:02.709Z,1.80
2018-12-16T22:14:31.187Z,1.70
2018-12-16T22:17:00.020Z,1.70
2018-12-16T22:19:28.573Z,1.80
2018-12-16T22:21:57.140Z,1.80
2018-12-16T22:24:25.765Z,1.90
2018-12-16T22:26:54.234Z,1.80
2018-12-16T22:29:22.937Z,1.80
2018-12-16T22:31:51.616Z,1.60
2018-12-16T22:34:20.245Z,1.60
2018-12-16T22:36:48.736Z,1.50
2018-12-16T22:39:18.664Z,1.60
2018-12-16T22:41:47.129Z,1.70
2018-12-16T22:44:15.626Z,1.70
2018-12-16T22:46:44.048Z,1.70
2018-12-16T22:49:12.581Z,1.70
2018-12-16T22:51:41.082Z,1.70
2018-12-16T22:54:09.384Z,1.60
2018-12-16T22:56:38.508Z,1.50
2018-12-16T22:59:06.560Z,1.50
2018-12-16T23:01:34.744Z,1.60
2018-12-16T23:04:02.957Z,1.50
2018-12-16T23:06:31.312Z,1.50
2018-12-16T23:08:59.860Z,1.50
2018-12-16T23:11:28.797Z,1.50
2018-12-16T23:13:57.291Z,1.30
2018-12-16T23:16:25.957Z,1.30
2018-12-16T23:18:54.804Z,1.40
2018-12-16T23:21:23.344Z,1.30
2018-12-16T23:23:51.445Z,1.20
2018-12-16T23:26:20.002Z,1.10
2018-12-16T23:28:48.379Z,1.10
2018-12-16T23:31:16.708Z,1.20
2018-12-16T23:33:45.243Z,1.20
2018-12-16T23:36:13.612Z,1.20
2018-12-16T23:38:45.636Z,1.20
2018-12-16T23:41:14.169Z,1.10
2018-12-16T23:43:42.644Z,1.10
2018-12-16T23:46:11.179Z,1.20
2018-12-16T23:48:39.717Z,1.10
2018-12-16T23:51:08.197Z,1.00
2018-12-16T23:53:36.731Z,1.00
2018-12-16T23:56:06.281Z,1.10
2018-12-16T23:58:34.948Z,1.10
